sensor_id;sensor_type;location;lat;lon;timestamp;P1;durP1;ratioP1;P2;durP2;ratioP2
45684;SDS011;46836;48.388;16.210;2023-01-19T00:00:55;5.90;;;4.85;;
45684;SDS011;46836;48.388;16.210;2023-01-19T00:03:22;6.28;;;4.97;;
45684;SDS011;46836;48.388;16.210;2023-01-19T00:05:49;6.60;;;5.90;;
45684;SDS011;46836;48.388;16.210;2023-01-19T00:08:17;6.15;;;5.28;;
45684;SDS011;46836;48.388;16.210;2023-01-19T00:10:45;6.85;;;5.30;;
45684;SDS011;46836;48.388;16.210;2023-01-19T00:13:14;8.00;;;5.50;;
45684;SDS011;46836;48.388;16.210;2023-01-19T00:15:41;6.65;;;5.35;;
45684;SDS011;46836;48.388;16.210;2023-01-19T00:18:09;5.22;;;4.72;;
45684;SDS011;46836;48.388;16.210;2023-01-19T00:20:37;8.00;;;5.93;;
45684;SDS011;46836;48.388;16.210;2023-01-19T00:23:05;6.90;;;5.65;;
45684;SDS011;46836;48.388;16.210;2023-01-19T00:25:34;9.52;;;6.07;;
45684;SDS011;46836;48.388;16.210;2023-01-19T00:28:12;8.15;;;6.00;;
45684;SDS011;46836;48.388;16.210;2023-01-19T00:30:41;7.38;;;5.35;;
45684;SDS011;46836;48.388;16.210;2023-01-19T00:33:09;5.78;;;5.00;;
45684;SDS011;46836;48.388;16.210;2023-01-19T00:35:40;6.78;;;5.38;;
45684;SDS011;46836;48.388;16.210;2023-01-19T00:38:10;6.00;;;5.20;;
45684;SDS011;46836;48.388;16.210;2023-01-19T00:40:38;6.65;;;4.80;;
45684;SDS011;46836;48.388;16.210;2023-01-19T00:43:05;6.50;;;5.20;;
45684;SDS011;46836;48.388;16.210;2023-01-19T00:45:32;7.68;;;5.32;;
45684;SDS011;46836;48.388;16.210;2023-01-19T00:47:59;6.57;;;5.65;;
45684;SDS011;46836;48.388;16.210;2023-01-19T00:50:27;7.03;;;5.75;;
45684;SDS011;46836;48.388;16.210;2023-01-19T00:52:55;6.88;;;5.60;;
45684;SDS011;46836;48.388;16.210;2023-01-19T00:55:27;8.93;;;5.20;;
45684;SDS011;46836;48.388;16.210;2023-01-19T00:57:56;6.70;;;5.10;;
45684;SDS011;46836;48.388;16.210;2023-01-19T01:00:23;6.75;;;5.28;;
45684;SDS011;46836;48.388;16.210;2023-01-19T01:02:51;5.80;;;5.10;;
45684;SDS011;46836;48.388;16.210;2023-01-19T01:05:19;6.78;;;5.63;;
45684;SDS011;46836;48.388;16.210;2023-01-19T01:07:46;6.15;;;4.40;;
45684;SDS011;46836;48.388;16.210;2023-01-19T01:10:16;6.00;;;4.78;;
45684;SDS011;46836;48.388;16.210;2023-01-19T01:12:54;6.03;;;5.32;;
45684;SDS011;46836;48.388;16.210;2023-01-19T01:15:41;6.63;;;4.95;;
45684;SDS011;46836;48.388;16.210;2023-01-19T01:18:09;8.68;;;5.45;;
45684;SDS011;46836;48.388;16.210;2023-01-19T01:20:35;5.40;;;4.60;;
45684;SDS011;46836;48.388;16.210;2023-01-19T01:23:03;6.93;;;5.53;;
45684;SDS011;46836;48.388;16.210;2023-01-19T01:25:30;6.07;;;5.13;;
45684;SDS011;46836;48.388;16.210;2023-01-19T01:27:59;6.18;;;5.18;;
45684;SDS011;46836;48.388;16.210;2023-01-19T01:30:28;7.80;;;5.55;;
45684;SDS011;46836;48.388;16.210;2023-01-19T01:32:55;6.55;;;5.25;;
45684;SDS011;46836;48.388;16.210;2023-01-19T01:35:22;7.78;;;5.22;;
45684;SDS011;46836;48.388;16.210;2023-01-19T01:37:49;6.13;;;5.00;;
45684;SDS011;46836;48.388;16.210;2023-01-19T01:40:17;7.18;;;5.55;;
45684;SDS011;46836;48.388;16.210;2023-01-19T01:42:44;7.18;;;5.43;;
45684;SDS011;46836;48.388;16.210;2023-01-19T01:45:33;5.65;;;5.13;;
45684;SDS011;46836;48.388;16.210;2023-01-19T01:48:02;5.97;;;5.38;;
45684;SDS011;46836;48.388;16.210;2023-01-19T01:50:45;10.80;;;5.03;;
45684;SDS011;46836;48.388;16.210;2023-01-19T01:53:34;6.07;;;4.43;;
45684;SDS011;46836;48.388;16.210;2023-01-19T01:56:05;6.82;;;5.30;;
45684;SDS011;46836;48.388;16.210;2023-01-19T01:58:36;7.35;;;5.10;;
45684;SDS011;46836;48.388;16.210;2023-01-19T02:01:04;4.75;;;4.15;;
45684;SDS011;46836;48.388;16.210;2023-01-19T02:03:55;5.47;;;4.28;;
45684;SDS011;46836;48.388;16.210;2023-01-19T02:06:23;6.97;;;5.30;;
45684;SDS011;46836;48.388;16.210;2023-01-19T02:11:52;6.05;;;5.32;;
45684;SDS011;46836;48.388;16.210;2023-01-19T02:14:38;5.82;;;4.45;;
45684;SDS011;46836;48.388;16.210;2023-01-19T02:17:07;7.15;;;4.25;;
45684;SDS011;46836;48.388;16.210;2023-01-19T02:19:39;6.95;;;5.35;;
45684;SDS011;46836;48.388;16.210;2023-01-19T02:22:11;6.43;;;4.85;;
45684;SDS011;46836;48.388;16.210;2023-01-19T02:25:13;7.95;;;5.45;;
45684;SDS011;46836;48.388;16.210;2023-01-19T02:27:41;5.80;;;4.88;;
45684;SDS011;46836;48.388;16.210;2023-01-19T02:30:09;5.28;;;4.78;;
45684;SDS011;46836;48.388;16.210;2023-01-19T02:32:38;7.45;;;5.78;;
45684;SDS011;46836;48.388;16.210;2023-01-19T02:35:05;6.05;;;5.03;;
45684;SDS011;46836;48.388;16.210;2023-01-19T02:37:33;7.05;;;4.75;;
45684;SDS011;46836;48.388;16.210;2023-01-19T02:40:11;5.80;;;5.05;;
45684;SDS011;46836;48.388;16.210;2023-01-19T02:42:47;6.22;;;5.30;;
45684;SDS011;46836;48.388;16.210;2023-01-19T02:45:17;8.55;;;5.38;;
45684;SDS011;46836;48.388;16.210;2023-01-19T02:47:48;7.53;;;5.60;;
45684;SDS011;46836;48.388;16.210;2023-01-19T02:50:35;5.53;;;4.90;;
45684;SDS011;46836;48.388;16.210;2023-01-19T02:53:13;6.85;;;4.78;;
45684;SDS011;46836;48.388;16.210;2023-01-19T02:55:44;5.60;;;5.00;;
45684;SDS011;46836;48.388;16.210;2023-01-19T02:59:04;6.30;;;4.80;;
45684;SDS011;46836;48.388;16.210;2023-01-19T03:09:49;7.30;;;5.85;;
45684;SDS011;46836;48.388;16.210;2023-01-19T03:12:40;8.25;;;5.18;;
45684;SDS011;46836;48.388;16.210;2023-01-19T03:15:18;8.30;;;5.50;;
45684;SDS011;46836;48.388;16.210;2023-01-19T03:17:49;8.75;;;5.72;;
45684;SDS011;46836;48.388;16.210;2023-01-19T03:20:22;6.18;;;5.32;;
45684;SDS011;46836;48.388;16.210;2023-01-19T03:22:52;5.60;;;4.78;;
45684;SDS011;46836;48.388;16.210;2023-01-19T03:25:28;9.05;;;6.22;;
45684;SDS011;46836;48.388;16.210;2023-01-19T03:27:59;7.13;;;5.22;;
45684;SDS011;46836;48.388;16.210;2023-01-19T03:30:33;5.05;;;4.40;;
45684;SDS011;46836;48.388;16.210;2023-01-19T03:33:08;5.57;;;4.55;;
45684;SDS011;46836;48.388;16.210;2023-01-19T03:35:41;5.00;;;4.45;;
45684;SDS011;46836;48.388;16.210;2023-01-19T03:38:13;7.15;;;4.40;;
45684;SDS011;46836;48.388;16.210;2023-01-19T03:40:42;6.97;;;4.35;;
45684;SDS011;46836;48.388;16.210;2023-01-19T03:43:10;5.72;;;4.35;;
45684;SDS011;46836;48.388;16.210;2023-01-19T03:45:41;4.40;;;3.78;;
45684;SDS011;46836;48.388;16.210;2023-01-19T03:48:09;5.28;;;3.83;;
45684;SDS011;46836;48.388;16.210;2023-01-19T03:50:37;6.28;;;4.38;;
45684;SDS011;46836;48.388;16.210;2023-01-19T03:53:05;6.97;;;4.63;;
45684;SDS011;46836;48.388;16.210;2023-01-19T03:55:39;4.97;;;4.03;;
45684;SDS011;46836;48.388;16.210;2023-01-19T03:58:08;6.13;;;4.82;;
45684;SDS011;46836;48.388;16.210;2023-01-19T04:00:35;8.40;;;4.15;;
45684;SDS011;46836;48.388;16.210;2023-01-19T04:03:03;4.50;;;4.10;;
45684;SDS011;46836;48.388;16.210;2023-01-19T04:05:32;4.55;;;4.03;;
45684;SDS011;46836;48.388;16.210;2023-01-19T04:07:59;5.60;;;4.03;;
45684;SDS011;46836;48.388;16.210;2023-01-19T04:10:26;5.45;;;4.03;;
45684;SDS011;46836;48.388;16.210;2023-01-19T04:12:56;7.30;;;4.93;;
45684;SDS011;46836;48.388;16.210;2023-01-19T04:15:25;4.97;;;3.90;;
45684;SDS011;46836;48.388;16.210;2023-01-19T04:17:56;4.50;;;4.10;;
45684;SDS011;46836;48.388;16.210;2023-01-19T04:20:24;4.72;;;3.67;;
45684;SDS011;46836;48.388;16.210;2023-01-19T04:22:53;5.65;;;4.40;;
45684;SDS011;46836;48.388;16.210;2023-01-19T04:25:21;5.22;;;4.20;;
45684;SDS011;46836;48.388;16.210;2023-01-19T04:27:50;6.32;;;4.30;;
45684;SDS011;46836;48.388;16.210;2023-01-19T04:30:18;4.88;;;4.22;;
45684;SDS011;46836;48.388;16.210;2023-01-19T04:32:46;5.07;;;4.20;;
45684;SDS011;46836;48.388;16.210;2023-01-19T04:35:13;5.47;;;4.35;;
45684;SDS011;46836;48.388;16.210;2023-01-19T04:37:40;4.75;;;4.15;;
45684;SDS011;46836;48.388;16.210;2023-01-19T04:40:07;4.75;;;4.25;;
45684;SDS011;46836;48.388;16.210;2023-01-19T04:42:34;4.47;;;3.97;;
45684;SDS011;46836;48.388;16.210;2023-01-19T04:45:01;5.97;;;4.00;;
45684;SDS011;46836;48.388;16.210;2023-01-19T04:47:29;7.07;;;3.95;;
45684;SDS011;46836;48.388;16.210;2023-01-19T04:49:56;4.53;;;4.05;;
45684;SDS011;46836;48.388;16.210;2023-01-19T04:52:23;5.03;;;4.05;;
45684;SDS011;46836;48.388;16.210;2023-01-19T04:54:51;4.93;;;4.30;;
45684;SDS011;46836;48.388;16.210;2023-01-19T04:57:18;6.50;;;4.30;;
45684;SDS011;46836;48.388;16.210;2023-01-19T04:59:45;4.57;;;3.80;;
45684;SDS011;46836;48.388;16.210;2023-01-19T05:02:12;5.53;;;4.43;;
45684;SDS011;46836;48.388;16.210;2023-01-19T05:04:39;5.78;;;4.45;;
45684;SDS011;46836;48.388;16.210;2023-01-19T05:07:06;5.18;;;4.65;;
45684;SDS011;46836;48.388;16.210;2023-01-19T05:09:33;6.97;;;4.70;;
45684;SDS011;46836;48.388;16.210;2023-01-19T05:12:00;6.35;;;4.43;;
45684;SDS011;46836;48.388;16.210;2023-01-19T05:14:27;4.95;;;4.45;;
45684;SDS011;46836;48.388;16.210;2023-01-19T05:16:54;7.90;;;4.72;;
45684;SDS011;46836;48.388;16.210;2023-01-19T05:19:22;5.35;;;4.85;;
45684;SDS011;46836;48.388;16.210;2023-01-19T05:21:49;6.20;;;4.53;;
45684;SDS011;46836;48.388;16.210;2023-01-19T05:24:16;6.57;;;4.68;;
45684;SDS011;46836;48.388;16.210;2023-01-19T05:26:44;4.78;;;4.28;;
45684;SDS011;46836;48.388;16.210;2023-01-19T05:29:11;5.30;;;4.00;;
45684;SDS011;46836;48.388;16.210;2023-01-19T05:31:38;6.43;;;4.00;;
45684;SDS011;46836;48.388;16.210;2023-01-19T05:34:05;5.57;;;4.97;;
45684;SDS011;46836;48.388;16.210;2023-01-19T05:36:32;5.82;;;3.97;;
45684;SDS011;46836;48.388;16.210;2023-01-19T05:38:59;5.10;;;4.28;;
45684;SDS011;46836;48.388;16.210;2023-01-19T05:41:26;5.85;;;4.40;;
45684;SDS011;46836;48.388;16.210;2023-01-19T05:43:53;5.53;;;4.78;;
45684;SDS011;46836;48.388;16.210;2023-01-19T05:46:20;12.18;;;8.38;;
45684;SDS011;46836;48.388;16.210;2023-01-19T05:48:47;6.32;;;4.68;;
45684;SDS011;46836;48.388;16.210;2023-01-19T05:51:14;7.00;;;5.32;;
45684;SDS011;46836;48.388;16.210;2023-01-19T05:53:41;11.77;;;7.47;;
45684;SDS011;46836;48.388;16.210;2023-01-19T05:56:09;25.25;;;12.82;;
45684;SDS011;46836;48.388;16.210;2023-01-19T05:58:37;12.75;;;7.35;;
45684;SDS011;46836;48.388;16.210;2023-01-19T06:01:08;35.67;;;19.88;;
45684;SDS011;46836;48.388;16.210;2023-01-19T06:03:36;11.52;;;7.00;;
45684;SDS011;46836;48.388;16.210;2023-01-19T06:06:05;6.10;;;5.10;;
45684;SDS011;46836;48.388;16.210;2023-01-19T06:08:32;7.90;;;5.15;;
45684;SDS011;46836;48.388;16.210;2023-01-19T06:10:59;4.65;;;4.18;;
45684;SDS011;46836;48.388;16.210;2023-01-19T06:13:26;7.20;;;5.55;;
45684;SDS011;46836;48.388;16.210;2023-01-19T06:15:57;6.07;;;4.57;;
45684;SDS011;46836;48.388;16.210;2023-01-19T06:18:28;6.13;;;4.55;;
45684;SDS011;46836;48.388;16.210;2023-01-19T06:20:55;6.68;;;5.28;;
45684;SDS011;46836;48.388;16.210;2023-01-19T06:23:26;7.88;;;5.43;;
45684;SDS011;46836;48.388;16.210;2023-01-19T06:25:55;6.53;;;5.32;;
45684;SDS011;46836;48.388;16.210;2023-01-19T06:28:23;7.70;;;5.35;;
45684;SDS011;46836;48.388;16.210;2023-01-19T06:30:51;5.80;;;4.95;;
45684;SDS011;46836;48.388;16.210;2023-01-19T06:33:19;12.30;;;8.25;;
45684;SDS011;46836;48.388;16.210;2023-01-19T06:35:48;8.75;;;6.40;;
45684;SDS011;46836;48.388;16.210;2023-01-19T06:38:17;6.55;;;5.40;;
45684;SDS011;46836;48.388;16.210;2023-01-19T06:40:45;10.75;;;7.70;;
45684;SDS011;46836;48.388;16.210;2023-01-19T06:43:19;11.98;;;6.50;;
45684;SDS011;46836;48.388;16.210;2023-01-19T06:45:47;8.75;;;6.40;;
45684;SDS011;46836;48.388;16.210;2023-01-19T06:48:14;8.10;;;6.10;;
45684;SDS011;46836;48.388;16.210;2023-01-19T06:50:43;8.35;;;6.03;;
45684;SDS011;46836;48.388;16.210;2023-01-19T06:53:11;9.43;;;6.38;;
45684;SDS011;46836;48.388;16.210;2023-01-19T06:55:39;7.97;;;5.70;;
45684;SDS011;46836;48.388;16.210;2023-01-19T06:58:07;11.65;;;6.60;;
45684;SDS011;46836;48.388;16.210;2023-01-19T07:00:35;10.30;;;6.78;;
45684;SDS011;46836;48.388;16.210;2023-01-19T07:03:05;14.45;;;7.15;;
45684;SDS011;46836;48.388;16.210;2023-01-19T07:05:34;10.40;;;6.72;;
45684;SDS011;46836;48.388;16.210;2023-01-19T07:08:01;7.72;;;6.10;;
45684;SDS011;46836;48.388;16.210;2023-01-19T07:10:29;10.00;;;6.85;;
45684;SDS011;46836;48.388;16.210;2023-01-19T07:13:16;9.27;;;6.68;;
45684;SDS011;46836;48.388;16.210;2023-01-19T07:15:43;7.88;;;6.18;;
45684;SDS011;46836;48.388;16.210;2023-01-19T07:18:10;11.05;;;6.47;;
45684;SDS011;46836;48.388;16.210;2023-01-19T07:20:37;11.27;;;7.38;;
45684;SDS011;46836;48.388;16.210;2023-01-19T07:23:04;9.63;;;6.63;;
45684;SDS011;46836;48.388;16.210;2023-01-19T07:25:31;8.50;;;6.60;;
45684;SDS011;46836;48.388;16.210;2023-01-19T07:27:58;9.40;;;6.63;;
45684;SDS011;46836;48.388;16.210;2023-01-19T07:30:27;9.43;;;6.65;;
45684;SDS011;46836;48.388;16.210;2023-01-19T07:32:55;11.05;;;6.93;;
45684;SDS011;46836;48.388;16.210;2023-01-19T07:35:24;8.35;;;5.75;;
45684;SDS011;46836;48.388;16.210;2023-01-19T07:37:51;10.15;;;6.78;;
45684;SDS011;46836;48.388;16.210;2023-01-19T07:40:18;10.27;;;6.80;;
45684;SDS011;46836;48.388;16.210;2023-01-19T07:42:47;10.38;;;6.82;;
45684;SDS011;46836;48.388;16.210;2023-01-19T07:45:16;12.57;;;6.57;;
45684;SDS011;46836;48.388;16.210;2023-01-19T07:47:46;8.98;;;6.70;;
45684;SDS011;46836;48.388;16.210;2023-01-19T07:50:14;9.55;;;6.32;;
45684;SDS011;46836;48.388;16.210;2023-01-19T07:52:43;10.80;;;6.55;;
45684;SDS011;46836;48.388;16.210;2023-01-19T07:55:10;10.82;;;7.50;;
45684;SDS011;46836;48.388;16.210;2023-01-19T07:57:37;9.10;;;6.88;;
45684;SDS011;46836;48.388;16.210;2023-01-19T08:00:04;9.95;;;6.95;;
45684;SDS011;46836;48.388;16.210;2023-01-19T08:02:31;9.52;;;6.45;;
45684;SDS011;46836;48.388;16.210;2023-01-19T08:04:59;9.10;;;7.10;;
45684;SDS011;46836;48.388;16.210;2023-01-19T08:07:26;9.88;;;6.40;;
45684;SDS011;46836;48.388;16.210;2023-01-19T08:09:53;9.73;;;6.82;;
45684;SDS011;46836;48.388;16.210;2023-01-19T08:12:20;10.65;;;7.18;;
45684;SDS011;46836;48.388;16.210;2023-01-19T08:14:47;8.00;;;6.18;;
45684;SDS011;46836;48.388;16.210;2023-01-19T08:17:14;11.55;;;7.57;;
45684;SDS011;46836;48.388;16.210;2023-01-19T08:19:42;9.43;;;6.38;;
45684;SDS011;46836;48.388;16.210;2023-01-19T08:22:10;8.02;;;5.95;;
45684;SDS011;46836;48.388;16.210;2023-01-19T08:24:37;9.52;;;6.32;;
45684;SDS011;46836;48.388;16.210;2023-01-19T08:27:04;10.55;;;6.60;;
45684;SDS011;46836;48.388;16.210;2023-01-19T08:29:32;7.38;;;6.38;;
45684;SDS011;46836;48.388;16.210;2023-01-19T08:31:59;9.25;;;7.03;;
45684;SDS011;46836;48.388;16.210;2023-01-19T08:34:28;21.50;;;6.85;;
45684;SDS011;46836;48.388;16.210;2023-01-19T08:36:56;7.63;;;5.53;;
45684;SDS011;46836;48.388;16.210;2023-01-19T08:39:24;9.00;;;6.20;;
45684;SDS011;46836;48.388;16.210;2023-01-19T08:41:52;13.40;;;6.38;;
45684;SDS011;46836;48.388;16.210;2023-01-19T08:44:19;8.23;;;5.95;;
45684;SDS011;46836;48.388;16.210;2023-01-19T08:46:47;10.45;;;6.18;;
45684;SDS011;46836;48.388;16.210;2023-01-19T08:49:14;7.40;;;5.60;;
45684;SDS011;46836;48.388;16.210;2023-01-19T08:51:41;9.52;;;6.10;;
45684;SDS011;46836;48.388;16.210;2023-01-19T08:54:12;10.10;;;6.40;;
45684;SDS011;46836;48.388;16.210;2023-01-19T08:56:39;7.55;;;5.35;;
45684;SDS011;46836;48.388;16.210;2023-01-19T08:59:06;7.55;;;5.60;;
45684;SDS011;46836;48.388;16.210;2023-01-19T09:01:37;7.72;;;5.72;;
45684;SDS011;46836;48.388;16.210;2023-01-19T09:04:04;6.40;;;5.00;;
45684;SDS011;46836;48.388;16.210;2023-01-19T09:06:32;8.40;;;6.07;;
45684;SDS011;46836;48.388;16.210;2023-01-19T09:08:59;6.93;;;5.95;;
45684;SDS011;46836;48.388;16.210;2023-01-19T09:11:26;7.50;;;4.68;;
45684;SDS011;46836;48.388;16.210;2023-01-19T09:13:53;10.50;;;5.55;;
45684;SDS011;46836;48.388;16.210;2023-01-19T09:16:20;5.88;;;4.97;;
45684;SDS011;46836;48.388;16.210;2023-01-19T09:18:48;5.90;;;5.22;;
45684;SDS011;46836;48.388;16.210;2023-01-19T09:21:19;4.80;;;4.40;;
45684;SDS011;46836;48.388;16.210;2023-01-19T09:23:46;5.18;;;4.32;;
45684;SDS011;46836;48.388;16.210;2023-01-19T09:26:14;5.07;;;4.28;;
45684;SDS011;46836;48.388;16.210;2023-01-19T09:28:41;12.95;;;4.80;;
45684;SDS011;46836;48.388;16.210;2023-01-19T09:31:08;6.35;;;5.03;;
45684;SDS011;46836;48.388;16.210;2023-01-19T09:33:36;5.55;;;5.00;;
45684;SDS011;46836;48.388;16.210;2023-01-19T09:36:03;8.10;;;5.32;;
45684;SDS011;46836;48.388;16.210;2023-01-19T09:38:30;6.82;;;4.60;;
45684;SDS011;46836;48.388;16.210;2023-01-19T09:40:58;5.60;;;4.63;;
45684;SDS011;46836;48.388;16.210;2023-01-19T09:43:40;4.95;;;4.45;;
45684;SDS011;46836;48.388;16.210;2023-01-19T09:46:20;4.72;;;4.20;;
45684;SDS011;46836;48.388;16.210;2023-01-19T09:48:55;5.25;;;4.57;;
45684;SDS011;46836;48.388;16.210;2023-01-19T09:51:32;4.18;;;3.63;;
45684;SDS011;46836;48.388;16.210;2023-01-19T09:56:31;5.05;;;3.13;;
45684;SDS011;46836;48.388;16.210;2023-01-19T09:58:59;3.55;;;3.25;;
45684;SDS011;46836;48.388;16.210;2023-01-19T10:01:47;6.78;;;3.33;;
45684;SDS011;46836;48.388;16.210;2023-01-19T10:04:35;2.60;;;2.40;;
45684;SDS011;46836;48.388;16.210;2023-01-19T10:17:50;3.35;;;2.70;;
45684;SDS011;46836;48.388;16.210;2023-01-19T10:20:30;4.32;;;3.53;;
45684;SDS011;46836;48.388;16.210;2023-01-19T10:23:03;3.47;;;3.17;;
45684;SDS011;46836;48.388;16.210;2023-01-19T10:25:42;4.20;;;3.72;;
45684;SDS011;46836;48.388;16.210;2023-01-19T10:28:10;5.55;;;4.53;;
45684;SDS011;46836;48.388;16.210;2023-01-19T10:30:40;6.40;;;5.13;;
45684;SDS011;46836;48.388;16.210;2023-01-19T10:33:11;6.47;;;5.40;;
45684;SDS011;46836;48.388;16.210;2023-01-19T10:35:39;5.82;;;5.05;;
45684;SDS011;46836;48.388;16.210;2023-01-19T10:38:06;7.43;;;6.07;;
45684;SDS011;46836;48.388;16.210;2023-01-19T10:40:45;7.97;;;6.40;;
45684;SDS011;46836;48.388;16.210;2023-01-19T10:46:06;7.40;;;4.90;;
45684;SDS011;46836;48.388;16.210;2023-01-19T10:48:43;11.35;;;5.93;;
45684;SDS011;46836;48.388;16.210;2023-01-19T10:51:13;7.40;;;5.90;;
45684;SDS011;46836;48.388;16.210;2023-01-19T10:53:41;15.63;;;11.45;;
45684;SDS011;46836;48.388;16.210;2023-01-19T10:56:22;5.65;;;4.90;;
45684;SDS011;46836;48.388;16.210;2023-01-19T10:58:52;7.35;;;5.20;;
45684;SDS011;46836;48.388;16.210;2023-01-19T11:01:21;11.30;;;7.72;;
45684;SDS011;46836;48.388;16.210;2023-01-19T11:03:50;9.45;;;5.00;;
45684;SDS011;46836;48.388;16.210;2023-01-19T11:06:26;6.43;;;5.53;;
45684;SDS011;46836;48.388;16.210;2023-01-19T11:09:11;6.80;;;5.00;;
45684;SDS011;46836;48.388;16.210;2023-01-19T11:11:44;7.82;;;5.10;;
45684;SDS011;46836;48.388;16.210;2023-01-19T11:14:16;7.82;;;6.18;;
45684;SDS011;46836;48.388;16.210;2023-01-19T11:16:50;6.85;;;5.32;;
45684;SDS011;46836;48.388;16.210;2023-01-19T11:19:23;5.13;;;3.25;;
45684;SDS011;46836;48.388;16.210;2023-01-19T11:24:59;5.53;;;4.07;;
45684;SDS011;46836;48.388;16.210;2023-01-19T11:27:29;4.78;;;3.10;;
45684;SDS011;46836;48.388;16.210;2023-01-19T11:30:05;5.05;;;4.00;;
45684;SDS011;46836;48.388;16.210;2023-01-19T11:32:46;3.60;;;3.30;;
45684;SDS011;46836;48.388;16.210;2023-01-19T11:35:34;3.38;;;2.83;;
45684;SDS011;46836;48.388;16.210;2023-01-19T11:38:25;3.63;;;3.22;;
45684;SDS011;46836;48.388;16.210;2023-01-19T11:40:55;3.78;;;3.47;;
45684;SDS011;46836;48.388;16.210;2023-01-19T11:43:27;5.65;;;4.20;;
45684;SDS011;46836;48.388;16.210;2023-01-19T11:46:13;4.70;;;3.95;;
45684;SDS011;46836;48.388;16.210;2023-01-19T11:48:46;3.60;;;3.30;;
45684;SDS011;46836;48.388;16.210;2023-01-19T11:51:33;4.80;;;3.25;;
45684;SDS011;46836;48.388;16.210;2023-01-19T11:54:18;4.25;;;3.85;;
45684;SDS011;46836;48.388;16.210;2023-01-19T11:56:53;2.70;;;2.13;;
45684;SDS011;46836;48.388;16.210;2023-01-19T11:59:26;4.50;;;2.53;;
45684;SDS011;46836;48.388;16.210;2023-01-19T12:01:59;2.97;;;2.67;;
45684;SDS011;46836;48.388;16.210;2023-01-19T12:04:37;3.75;;;2.55;;
45684;SDS011;46836;48.388;16.210;2023-01-19T12:07:18;3.53;;;2.45;;
45684;SDS011;46836;48.388;16.210;2023-01-19T12:09:56;2.08;;;1.90;;
45684;SDS011;46836;48.388;16.210;2023-01-19T12:12:51;1.90;;;1.77;;
45684;SDS011;46836;48.388;16.210;2023-01-19T12:15:31;2.78;;;1.92;;
45684;SDS011;46836;48.388;16.210;2023-01-19T12:18:17;2.63;;;2.42;;
45684;SDS011;46836;48.388;16.210;2023-01-19T12:20:51;1.70;;;1.60;;
45684;SDS011;46836;48.388;16.210;2023-01-19T12:23:22;1.73;;;1.60;;
45684;SDS011;46836;48.388;16.210;2023-01-19T12:26:57;2.95;;;2.20;;
45684;SDS011;46836;48.388;16.210;2023-01-19T12:29:31;2.25;;;1.90;;
45684;SDS011;46836;48.388;16.210;2023-01-19T12:34:45;2.85;;;1.90;;
45684;SDS011;46836;48.388;16.210;2023-01-19T12:37:36;1.90;;;1.80;;
45684;SDS011;46836;48.388;16.210;2023-01-19T12:43:04;2.85;;;2.65;;
45684;SDS011;46836;48.388;16.210;2023-01-19T12:45:32;2.97;;;2.40;;
45684;SDS011;46836;48.388;16.210;2023-01-19T12:48:05;5.80;;;3.47;;
45684;SDS011;46836;48.388;16.210;2023-01-19T12:50:50;2.60;;;2.30;;
45684;SDS011;46836;48.388;16.210;2023-01-19T12:53:18;2.78;;;2.53;;
45684;SDS011;46836;48.388;16.210;2023-01-19T12:55:56;5.60;;;3.42;;
45684;SDS011;46836;48.388;16.210;2023-01-19T13:01:23;5.88;;;2.28;;
45684;SDS011;46836;48.388;16.210;2023-01-19T13:09:34;2.63;;;2.35;;
45684;SDS011;46836;48.388;16.210;2023-01-19T13:12:10;3.17;;;2.88;;
45684;SDS011;46836;48.388;16.210;2023-01-19T13:14:41;4.90;;;3.42;;
45684;SDS011;46836;48.388;16.210;2023-01-19T13:17:20;5.00;;;3.45;;
45684;SDS011;46836;48.388;16.210;2023-01-19T13:19:51;3.72;;;3.00;;
45684;SDS011;46836;48.388;16.210;2023-01-19T13:25:43;2.60;;;2.38;;
45684;SDS011;46836;48.388;16.210;2023-01-19T13:28:15;3.70;;;2.85;;
45684;SDS011;46836;48.388;16.210;2023-01-19T13:30:51;2.80;;;2.30;;
45684;SDS011;46836;48.388;16.210;2023-01-19T13:33:23;5.20;;;3.30;;
45684;SDS011;46836;48.388;16.210;2023-01-19T13:35:55;3.65;;;2.35;;
45684;SDS011;46836;48.388;16.210;2023-01-19T13:38:25;4.35;;;2.80;;
45684;SDS011;46836;48.388;16.210;2023-01-19T13:40:54;4.70;;;2.90;;
45684;SDS011;46836;48.388;16.210;2023-01-19T13:43:26;4.30;;;3.95;;
45684;SDS011;46836;48.388;16.210;2023-01-19T13:45:57;3.85;;;2.83;;
45684;SDS011;46836;48.388;16.210;2023-01-19T13:48:26;2.47;;;2.13;;
45684;SDS011;46836;48.388;16.210;2023-01-19T13:51:16;9.20;;;2.75;;
45684;SDS011;46836;48.388;16.210;2023-01-19T13:53:56;4.88;;;2.95;;
45684;SDS011;46836;48.388;16.210;2023-01-19T13:56:25;3.70;;;2.70;;
45684;SDS011;46836;48.388;16.210;2023-01-19T13:58:58;5.07;;;3.35;;
45684;SDS011;46836;48.388;16.210;2023-01-19T14:01:45;6.25;;;2.55;;
45684;SDS011;46836;48.388;16.210;2023-01-19T14:04:29;6.00;;;3.50;;
45684;SDS011;46836;48.388;16.210;2023-01-19T14:07:01;7.63;;;4.13;;
45684;SDS011;46836;48.388;16.210;2023-01-19T14:09:38;4.40;;;2.70;;
45684;SDS011;46836;48.388;16.210;2023-01-19T14:12:15;5.25;;;4.28;;
45684;SDS011;46836;48.388;16.210;2023-01-19T14:14:44;4.50;;;4.10;;
45684;SDS011;46836;48.388;16.210;2023-01-19T14:17:20;3.70;;;2.75;;
45684;SDS011;46836;48.388;16.210;2023-01-19T14:19:56;4.32;;;2.85;;
45684;SDS011;46836;48.388;16.210;2023-01-19T14:22:41;4.00;;;2.92;;
45684;SDS011;46836;48.388;16.210;2023-01-19T14:31:19;6.40;;;3.67;;
45684;SDS011;46836;48.388;16.210;2023-01-19T14:33:49;4.68;;;3.40;;
45684;SDS011;46836;48.388;16.210;2023-01-19T14:36:24;4.85;;;3.78;;
45684;SDS011;46836;48.388;16.210;2023-01-19T14:38:55;4.57;;;3.13;;
45684;SDS011;46836;48.388;16.210;2023-01-19T14:44:26;4.28;;;3.22;;
45684;SDS011;46836;48.388;16.210;2023-01-19T14:46:54;3.50;;;3.20;;
45684;SDS011;46836;48.388;16.210;2023-01-19T14:49:32;7.97;;;4.25;;
45684;SDS011;46836;48.388;16.210;2023-01-19T14:52:02;5.00;;;3.63;;
45684;SDS011;46836;48.388;16.210;2023-01-19T14:54:38;6.72;;;3.05;;
45684;SDS011;46836;48.388;16.210;2023-01-19T14:57:11;5.10;;;3.72;;
45684;SDS011;46836;48.388;16.210;2023-01-19T14:59:39;5.93;;;3.42;;
45684;SDS011;46836;48.388;16.210;2023-01-19T15:02:07;4.35;;;3.13;;
45684;SDS011;46836;48.388;16.210;2023-01-19T15:04:34;4.30;;;3.25;;
45684;SDS011;46836;48.388;16.210;2023-01-19T15:07:01;3.95;;;2.83;;
45684;SDS011;46836;48.388;16.210;2023-01-19T15:09:29;4.72;;;3.28;;
45684;SDS011;46836;48.388;16.210;2023-01-19T15:11:56;4.05;;;2.92;;
45684;SDS011;46836;48.388;16.210;2023-01-19T15:14:23;3.65;;;2.78;;
45684;SDS011;46836;48.388;16.210;2023-01-19T15:16:53;3.17;;;2.85;;
45684;SDS011;46836;48.388;16.210;2023-01-19T15:19:20;3.70;;;3.22;;
45684;SDS011;46836;48.388;16.210;2023-01-19T15:21:47;6.50;;;3.95;;
45684;SDS011;46836;48.388;16.210;2023-01-19T15:24:14;5.45;;;3.03;;
45684;SDS011;46836;48.388;16.210;2023-01-19T15:26:43;6.28;;;3.45;;
45684;SDS011;46836;48.388;16.210;2023-01-19T15:29:20;5.57;;;3.53;;
45684;SDS011;46836;48.388;16.210;2023-01-19T15:31:50;5.45;;;3.72;;
45684;SDS011;46836;48.388;16.210;2023-01-19T15:34:17;3.20;;;2.33;;
45684;SDS011;46836;48.388;16.210;2023-01-19T15:36:44;4.70;;;2.80;;
45684;SDS011;46836;48.388;16.210;2023-01-19T15:39:11;3.20;;;2.63;;
45684;SDS011;46836;48.388;16.210;2023-01-19T15:41:38;4.10;;;2.38;;
45684;SDS011;46836;48.388;16.210;2023-01-19T15:44:06;6.70;;;3.22;;
45684;SDS011;46836;48.388;16.210;2023-01-19T15:46:36;5.25;;;3.42;;
45684;SDS011;46836;48.388;16.210;2023-01-19T15:49:03;7.95;;;4.70;;
45684;SDS011;46836;48.388;16.210;2023-01-19T15:51:31;7.18;;;4.50;;
45684;SDS011;46836;48.388;16.210;2023-01-19T15:53:58;11.05;;;5.82;;